createdAt,value
2022-09-15T00:00:23.121Z,99.9
2022-09-15T00:04:30.121Z,99.9
2022-09-15T00:12:37.828Z,99.9
2022-09-15T00:18:46.727Z,99.9
2022-09-15T00:20:48.658Z,99.9
2022-09-15T00:22:50.657Z,99.9
2022-09-15T00:23:53.089Z,99.9
2022-09-15T00:25:54.992Z,99.9
2022-09-15T00:27:56.892Z,99.9
2022-09-15T00:29:58.795Z,99.9
2022-09-15T00:32:03.882Z,99.9
2022-09-15T00:34:05.818Z,99.9
2022-09-15T00:36:07.746Z,99.9
2022-09-15T00:38:09.678Z,99.9
2022-09-15T00:40:11.648Z,99.9
2022-09-15T00:42:13.492Z,99.9
2022-09-15T00:52:26.258Z,99.9
2022-09-15T00:54:28.182Z,99.9
2022-09-15T00:58:32.003Z,99.9
2022-09-15T01:08:44.789Z,99.9
2022-09-15T01:10:46.664Z,99.9
2022-09-15T01:14:53.632Z,99.9
2022-09-15T01:19:28.900Z,99.9
2022-09-15T01:19:59.995Z,99.9
2022-09-15T01:22:01.919Z,99.9
2022-09-15T01:24:03.828Z,99.9
2022-09-15T01:26:05.753Z,99.9
2022-09-15T01:28:10.819Z,99.9
2022-09-15T01:30:12.744Z,99.9
2022-09-15T01:32:14.658Z,99.9
2022-09-15T01:34:16.593Z,99.9
2022-09-15T01:36:18.491Z,99.9
2022-09-15T01:38:20.419Z,99.9
2022-09-15T01:40:22.374Z,99.9
2022-09-15T01:42:27.402Z,99.9
2022-09-15T01:44:29.344Z,99.9
2022-09-15T01:46:31.266Z,99.9
2022-09-15T01:48:33.211Z,99.9
2022-09-15T01:54:38.981Z,99.9
2022-09-15T02:02:49.792Z,99.9
2022-09-15T02:04:51.718Z,99.9
2022-09-15T02:06:53.657Z,99.9
2022-09-15T02:08:55.573Z,99.9
2022-09-15T02:11:00.610Z,99.9
2022-09-15T02:15:04.493Z,99.9
2022-09-15T02:17:33.154Z,99.9
2022-09-15T02:29:47.830Z,99.9
2022-09-15T02:31:49.830Z,99.9
2022-09-15T02:33:51.682Z,99.9
2022-09-15T02:35:53.590Z,99.9
2022-09-15T02:37:58.663Z,99.9
2022-09-15T02:40:00.784Z,99.9
2022-09-15T02:42:02.521Z,99.9
2022-09-15T02:44:04.425Z,99.9
2022-09-15T02:46:06.430Z,99.9
2022-09-15T02:48:08.283Z,99.9
2022-09-15T02:50:10.223Z,99.9
2022-09-15T02:52:15.284Z,99.9
2022-09-15T02:54:17.232Z,99.9
2022-09-15T02:56:20.706Z,99.9
2022-09-15T02:58:22.585Z,99.9
2022-09-15T03:02:26.481Z,99.9
2022-09-15T03:04:28.331Z,99.9
2022-09-15T03:06:33.420Z,99.9
2022-09-15T03:08:35.326Z,99.9
2022-09-15T03:10:37.247Z,99.9
2022-09-15T03:11:39.789Z,99.9
2022-09-15T03:13:41.713Z,99.9
2022-09-15T03:15:43.634Z,99.9
2022-09-15T03:17:45.553Z,99.9
2022-09-15T03:19:50.600Z,99.9
2022-09-15T03:21:52.543Z,99.9
2022-09-15T03:30:00.218Z,99.9
2022-09-15T03:32:02.160Z,99.9
2022-09-15T03:34:07.181Z,99.9
2022-09-15T03:36:09.109Z,99.9
2022-09-15T03:38:11.035Z,99.9
2022-09-15T03:40:13.037Z,99.9
2022-09-15T03:48:23.788Z,99.9
2022-09-15T03:52:27.667Z,99.9
2022-09-15T03:54:29.565Z,99.9
2022-09-15T03:56:31.500Z,99.9
2022-09-15T03:58:33.428Z,99.9
2022-09-15T04:02:40.417Z,99.9
2022-09-15T04:04:42.350Z,99.9
2022-09-15T04:06:44.261Z,99.9
2022-09-15T04:09:48.730Z,99.9
2022-09-15T04:11:50.637Z,99.9
2022-09-15T04:13:52.618Z,99.9
2022-09-15T04:17:59.605Z,99.9
2022-09-15T04:20:01.569Z,99.9
2022-09-15T04:22:03.428Z,99.9
2022-09-15T04:28:09.190Z,99.9
2022-09-15T04:34:18.097Z,99.9
2022-09-15T04:36:20.005Z,99.9
2022-09-15T04:40:23.916Z,99.9
2022-09-15T04:42:25.770Z,99.9
2022-09-15T04:44:30.832Z,99.9
2022-09-15T04:46:32.817Z,99.9
2022-09-15T04:48:34.638Z,99.9
2022-09-15T04:50:36.571Z,99.9
2022-09-15T04:54:40.410Z,99.9
2022-09-15T04:56:42.351Z,99.9
2022-09-15T04:58:47.408Z,99.9
2022-09-15T05:00:49.354Z,99.9
2022-09-15T05:02:51.222Z,99.9
2022-09-15T05:03:53.807Z,99.9
2022-09-15T05:05:55.710Z,99.9
2022-09-15T05:07:57.622Z,99.9
2022-09-15T05:09:59.535Z,99.9
2022-09-15T05:12:04.597Z,99.9
2022-09-15T05:14:06.518Z,99.9
2022-09-15T05:16:08.478Z,99.9
2022-09-15T05:18:10.368Z,99.9
2022-09-15T05:20:12.277Z,99.9
2022-09-15T05:22:14.184Z,99.9
2022-09-15T05:24:16.094Z,99.9
2022-09-15T05:26:21.148Z,99.9
2022-09-15T05:36:30.765Z,99.9
2022-09-15T05:38:32.689Z,99.9
2022-09-15T05:42:39.633Z,99.9
2022-09-15T05:44:41.579Z,99.9
2022-09-15T05:54:58.886Z,99.9
2022-09-15T05:56:56.206Z,99.9
2022-09-15T06:01:26.860Z,99.9
2022-09-15T06:03:30.973Z,99.9
2022-09-15T06:05:30.596Z,99.9
2022-09-15T06:07:35.666Z,99.9
2022-09-15T06:09:37.572Z,99.9
2022-09-15T06:11:39.499Z,99.9
2022-09-15T06:13:41.434Z,99.9
2022-09-15T06:15:43.416Z,99.9
2022-09-15T06:17:45.255Z,99.9
2022-09-15T06:19:47.149Z,99.9
2022-09-15T06:21:52.228Z,99.9
2022-09-15T06:23:54.210Z,99.9
2022-09-15T06:29:59.938Z,99.9
2022-09-15T06:32:01.940Z,99.9
2022-09-15T06:34:03.758Z,99.9
2022-09-15T06:36:08.822Z,99.9
2022-09-15T06:38:10.753Z,99.9
2022-09-15T06:40:12.733Z,99.9
2022-09-15T06:42:14.577Z,99.9
2022-09-15T06:44:16.514Z,99.9
2022-09-15T06:46:18.487Z,99.9
2022-09-15T06:48:24.792Z,99.9
2022-09-15T06:50:25.523Z,99.9
2022-09-15T06:52:27.324Z,99.9
2022-09-15T06:54:29.226Z,99.9
2022-09-15T06:55:31.758Z,99.9
2022-09-15T06:57:33.679Z,99.9
2022-09-15T06:59:35.584Z,99.9
2022-09-15T07:01:37.509Z,99.9
2022-09-15T07:05:44.500Z,99.9
2022-09-15T07:07:46.391Z,99.9
2022-09-15T07:09:49.184Z,99.9
2022-09-15T07:11:50.230Z,99.9
2022-09-15T07:13:52.249Z,99.9
2022-09-15T07:15:54.129Z,99.9
2022-09-15T07:17:59.131Z,99.9
2022-09-15T07:20:01.053Z,99.9
2022-09-15T07:22:02.923Z,99.9
2022-09-15T07:24:07.326Z,99.9
2022-09-15T07:26:06.772Z,99.9
2022-09-15T07:28:08.677Z,99.9
2022-09-15T07:32:15.635Z,99.9
2022-09-15T07:34:17.551Z,99.9
2022-09-15T07:36:19.461Z,99.9
2022-09-15T07:48:34.045Z,99.9
2022-09-15T07:50:35.965Z,99.9
2022-09-15T07:51:38.492Z,99.9
2022-09-15T07:53:40.425Z,99.9
2022-09-15T07:57:44.257Z,99.9
2022-09-15T08:03:53.233Z,99.9
2022-09-15T08:05:55.048Z,99.9
2022-09-15T08:09:58.853Z,99.9
2022-09-15T08:12:00.740Z,99.9
2022-09-15T08:22:13.396Z,99.9
2022-09-15T08:24:15.302Z,99.9
2022-09-15T08:26:17.214Z,99.9
2022-09-15T08:30:24.208Z,99.9
2022-09-15T08:32:26.072Z,99.9
2022-09-15T08:36:29.877Z,99.9
2022-09-15T08:38:31.787Z,99.9
2022-09-15T08:40:33.744Z,99.9
2022-09-15T08:42:41.676Z,99.9
2022-09-15T08:44:40.617Z,99.9
2022-09-15T08:46:42.640Z,99.9
2022-09-15T08:49:52.039Z,99.9
2022-09-15T08:53:52.367Z,99.9
2022-09-15T08:55:57.269Z,99.9
2022-09-15T08:57:59.165Z,99.9
2022-09-15T09:04:04.846Z,99.9
2022-09-15T09:06:06.753Z,99.9
2022-09-15T09:14:17.524Z,99.9
2022-09-15T09:16:19.482Z,99.9
2022-09-15T09:18:21.309Z,99.9
2022-09-15T09:20:23.152Z,99.9
2022-09-15T09:22:25.063Z,99.9
2022-09-15T09:24:30.112Z,99.9
2022-09-15T09:26:31.993Z,99.9
2022-09-15T09:28:33.880Z,99.9
2022-09-15T09:30:35.789Z,99.9
2022-09-15T09:32:37.654Z,99.9
2022-09-15T09:34:39.549Z,99.9
2022-09-15T09:36:41.418Z,99.9
2022-09-15T09:38:46.600Z,99.9
2022-09-15T09:40:48.511Z,99.9
2022-09-15T09:42:50.381Z,99.9
2022-09-15T09:45:18.924Z,99.9
2022-09-15T09:47:20.803Z,99.9
2022-09-15T09:49:22.677Z,99.9
2022-09-15T09:51:27.708Z,99.9
2022-09-15T09:53:29.573Z,99.9
2022-09-15T09:55:31.467Z,99.9
2022-09-15T09:57:34.528Z,99.9
2022-09-15T09:59:35.211Z,99.9
2022-09-15T10:01:37.159Z,99.9
2022-09-15T10:03:38.944Z,99.9
2022-09-15T10:05:43.974Z,99.9
2022-09-15T10:07:45.841Z,99.9
2022-09-15T10:09:47.696Z,99.6
2022-09-15T10:11:49.581Z,99.6
2022-09-15T10:13:51.433Z,99.6
2022-09-15T10:15:53.320Z,99.6
2022-09-15T10:17:55.177Z,99.6
2022-09-15T10:20:00.203Z,99.9
2022-09-15T10:24:03.940Z,99.9
2022-09-15T10:26:05.799Z,99.9
2022-09-15T10:30:09.541Z,99.9
2022-09-15T10:34:16.423Z,99.9
2022-09-15T10:36:18.292Z,99.9
2022-09-15T10:39:22.665Z,99.9
2022-09-15T10:41:24.542Z,99.9
2022-09-15T10:43:26.402Z,99.9
2022-09-15T10:45:28.308Z,99.9
2022-09-15T10:49:35.145Z,99.9
2022-09-15T10:51:37.019Z,99.9
2022-09-15T10:53:38.869Z,99.9
2022-09-15T10:59:44.469Z,99.9
2022-09-15T11:01:49.536Z,99.9
2022-09-15T11:03:51.359Z,99.9
2022-09-15T11:07:55.088Z,99.9
2022-09-15T11:09:57.003Z,99.9
2022-09-15T11:11:58.860Z,99.9
2022-09-15T11:14:00.727Z,99.9
2022-09-15T11:16:05.821Z,99.9
2022-09-15T11:18:07.596Z,99.9
2022-09-15T11:20:09.601Z,99.9
2022-09-15T11:22:11.357Z,99.9
2022-09-15T11:24:13.198Z,99.9
2022-09-15T11:26:15.064Z,99.9
2022-09-15T11:28:16.909Z,99.9
2022-09-15T11:32:23.794Z,99.9
2022-09-15T11:34:25.645Z,99.9
2022-09-15T11:35:28.169Z,99.9
2022-09-15T11:37:30.019Z,99.9
2022-09-15T11:39:31.894Z,99.9
2022-09-15T11:41:33.740Z,99.9
2022-09-15T11:43:38.779Z,99.9
2022-09-15T11:45:40.611Z,99.9
2022-09-15T11:47:42.494Z,99.9
2022-09-15T11:49:44.341Z,99.9
2022-09-15T11:51:46.200Z,99.9
2022-09-15T11:53:48.110Z,99.9
2022-09-15T11:55:49.910Z,99.9
2022-09-15T11:57:54.936Z,99.9
2022-09-15T11:59:56.791Z,99.9
2022-09-15T12:01:58.715Z,99.9
2022-09-15T12:04:00.552Z,99.9
2022-09-15T12:06:02.432Z,99.9
2022-09-15T12:08:04.270Z,99.9
2022-09-15T12:10:06.154Z,99.9
2022-09-15T12:12:11.169Z,99.9
2022-09-15T12:14:13.035Z,99.9
2022-09-15T12:16:14.946Z,99.9
2022-09-15T12:18:37.388Z,99.9
2022-09-15T12:20:18.666Z,99.9
2022-09-15T12:24:22.410Z,99.9
2022-09-15T12:26:27.433Z,99.9
2022-09-15T12:28:29.339Z,99.9
2022-09-15T12:30:31.218Z,99.9
2022-09-15T12:31:33.796Z,99.9
2022-09-15T12:33:35.606Z,99.9
2022-09-15T12:35:37.484Z,99.9
2022-09-15T12:39:44.386Z,99.9
2022-09-15T12:41:46.257Z,99.9
2022-09-15T12:43:48.117Z,99.9
2022-09-15T12:49:53.711Z,99.9
2022-09-15T12:51:55.582Z,99.7
2022-09-15T12:58:04.332Z,98.5
2022-09-15T13:00:06.233Z,98.3
2022-09-15T13:02:08.167Z,98
2022-09-15T13:04:09.943Z,97.9
2022-09-15T13:06:11.800Z,98
2022-09-15T13:08:16.814Z,98.2
2022-09-15T13:10:18.652Z,97.5
2022-09-15T13:12:20.520Z,96.5
2022-09-15T13:14:22.395Z,96.4
2022-09-15T13:16:24.240Z,96.1
2022-09-15T13:18:26.129Z,95.8
2022-09-15T13:20:27.967Z,96.1
2022-09-15T13:24:34.840Z,96.5
2022-09-15T13:29:05.221Z,96.7
2022-09-15T13:31:07.152Z,96.6
2022-09-15T13:33:08.947Z,96.7
2022-09-15T13:35:18.482Z,96.6
2022-09-15T13:39:17.680Z,96.6
2022-09-15T13:41:19.534Z,96
2022-09-15T13:43:21.371Z,95
2022-09-15T13:45:23.237Z,94.1
2022-09-15T13:47:25.090Z,93.8
2022-09-15T13:49:30.121Z,93.6
2022-09-15T13:51:31.966Z,94
2022-09-15T13:53:33.855Z,94.2
2022-09-15T13:55:35.711Z,94.6
2022-09-15T13:59:39.385Z,94.5
2022-09-15T14:01:41.319Z,94.9
2022-09-15T14:03:46.289Z,85.4
2022-09-15T14:05:48.131Z,95.9
2022-09-15T14:07:52.207Z,96.3
2022-09-15T14:09:51.838Z,96.5
2022-09-15T14:11:53.697Z,96.6
2022-09-15T14:15:57.417Z,96.7
2022-09-15T14:18:02.451Z,96.6
2022-09-15T14:20:04.311Z,95.7
2022-09-15T14:22:06.176Z,95.6
2022-09-15T14:23:08.675Z,95.4
2022-09-15T14:25:10.514Z,94.6
2022-09-15T14:27:12.408Z,94.2
2022-09-15T14:29:14.238Z,93.7
2022-09-15T14:31:19.282Z,92.8
2022-09-15T14:33:21.105Z,92.5
2022-09-15T14:35:23.049Z,80.9
2022-09-15T14:39:28.250Z,86.8
2022-09-15T14:47:38.768Z,90.8
2022-09-15T14:49:40.639Z,91.2
2022-09-15T14:51:42.483Z,91.4
2022-09-15T14:53:44.338Z,91.7
2022-09-15T14:55:46.202Z,91.6
2022-09-15T15:06:03.019Z,93.4
2022-09-15T15:08:00.522Z,93.5
2022-09-15T15:10:02.427Z,93.6
2022-09-15T15:12:04.273Z,93.7
2022-09-15T15:16:11.140Z,94.2
2022-09-15T15:18:12.976Z,94.5
2022-09-15T15:19:15.479Z,96
2022-09-15T15:21:17.345Z,98
2022-09-15T15:23:19.227Z,98.4
2022-09-15T15:25:21.062Z,99
2022-09-15T15:27:26.092Z,99.6
2022-09-15T15:29:27.958Z,99.6
2022-09-15T15:31:29.844Z,99.9
2022-09-15T15:33:31.679Z,99.9
2022-09-15T15:35:33.558Z,99.9
2022-09-15T15:37:35.417Z,99.9
2022-09-15T15:39:37.308Z,99.9
2022-09-15T15:41:42.367Z,99.9
2022-09-15T15:43:44.212Z,99.9
2022-09-15T15:45:46.131Z,99.9
2022-09-15T15:47:48.017Z,99.9
2022-09-15T15:50:11.675Z,99.9
2022-09-15T15:51:51.746Z,99.9
2022-09-15T15:53:53.624Z,99.9
2022-09-15T15:55:58.662Z,99.9
2022-09-15T15:58:00.531Z,99.9
2022-09-15T16:00:02.472Z,99.9
2022-09-15T16:02:04.323Z,99.9
2022-09-15T16:04:06.180Z,99.9
2022-09-15T16:06:08.072Z,99.9
2022-09-15T16:10:15.006Z,99.9
2022-09-15T16:12:16.887Z,99.9
2022-09-15T16:14:18.768Z,99.9
2022-09-15T16:15:21.281Z,99.9
2022-09-15T16:17:23.166Z,99.9
2022-09-15T16:19:25.059Z,99.9
2022-09-15T16:21:26.965Z,99.9
2022-09-15T16:23:31.989Z,99.9
2022-09-15T16:25:33.869Z,99.9
2022-09-15T16:27:35.768Z,99.9
2022-09-15T16:29:37.637Z,99.9
2022-09-15T16:31:39.635Z,99.9
2022-09-15T16:33:41.395Z,99.9
2022-09-15T16:35:43.296Z,99.9
2022-09-15T16:37:48.313Z,99.9
2022-09-15T16:39:50.223Z,99.9
2022-09-15T16:41:52.135Z,99.9
2022-09-15T16:43:54.084Z,99.9
2022-09-15T16:45:55.941Z,99.9
2022-09-15T16:49:59.690Z,99.9
2022-09-15T16:52:04.703Z,99.9
2022-09-15T16:54:06.598Z,99.9
2022-09-15T16:56:08.525Z,99.9
2022-09-15T16:58:10.403Z,99.9
2022-09-15T17:00:12.307Z,99.9
2022-09-15T17:02:14.349Z,99.9
2022-09-15T17:04:16.120Z,99.9
2022-09-15T17:06:21.167Z,99.9
2022-09-15T17:08:23.090Z,99.9
2022-09-15T17:10:24.980Z,99.9
2022-09-15T17:12:53.580Z,99.9
2022-09-15T17:14:55.484Z,99.9
2022-09-15T17:21:04.383Z,99.9
2022-09-15T17:23:06.289Z,99.9
2022-09-15T17:25:08.233Z,99.9
2022-09-15T17:27:10.134Z,99.9
2022-09-15T17:29:12.057Z,99.9
2022-09-15T17:31:14.033Z,99.9
2022-09-15T17:33:18.937Z,99.9
2022-09-15T17:35:20.851Z,99.9
2022-09-15T17:37:22.780Z,99.9
2022-09-15T17:39:24.709Z,99.9
2022-09-15T17:41:26.628Z,99.9
2022-09-15T17:43:28.557Z,99.9
2022-09-15T17:45:30.498Z,99.9
2022-09-15T17:47:35.561Z,99.9
2022-09-15T17:49:37.497Z,99.9
2022-09-15T17:51:39.427Z,99.9
2022-09-15T17:53:41.342Z,99.9
2022-09-15T17:55:43.270Z,99.9
2022-09-15T17:57:45.195Z,99.9
2022-09-15T17:59:47.139Z,99.9
2022-09-15T18:01:52.336Z,99.9
2022-09-15T18:03:54.207Z,99.9
2022-09-15T18:05:56.179Z,99.9
2022-09-15T18:13:04.468Z,99.9
2022-09-15T18:15:09.484Z,99.9
2022-09-15T18:17:11.393Z,99.9
2022-09-15T18:19:13.321Z,99.9
2022-09-15T18:23:17.187Z,99.9
2022-09-15T18:25:19.108Z,99.9
2022-09-15T18:27:21.033Z,99.9
2022-09-15T18:29:26.111Z,99.9
2022-09-15T18:31:28.083Z,99.9
2022-09-15T18:33:29.975Z,99.9
2022-09-15T18:35:31.879Z,99.9
2022-09-15T18:37:33.823Z,99.9
2022-09-15T18:39:35.757Z,99.9
2022-09-15T18:41:37.839Z,99.9
2022-09-15T18:43:42.784Z,99.9
2022-09-15T18:49:48.505Z,99.9
2022-09-15T18:51:51.859Z,99.9
2022-09-15T18:53:54.412Z,99.9
2022-09-15T18:55:54.296Z,99.9
2022-09-15T18:58:01.164Z,99.9
2022-09-15T19:03:05.721Z,99.9
2022-09-15T19:05:07.645Z,99.9
2022-09-15T19:07:09.571Z,99.9
2022-09-15T19:09:11.474Z,99.9
2022-09-15T19:11:16.528Z,99.9
2022-09-15T19:13:18.467Z,99.9
2022-09-15T19:15:23.688Z,99.9
2022-09-15T19:17:22.324Z,99.9
2022-09-15T19:19:24.241Z,99.9
2022-09-15T19:31:41.964Z,99.9
2022-09-15T19:33:40.887Z,99.9
2022-09-15T19:35:42.831Z,99.9
2022-09-15T19:37:44.758Z,99.9
2022-09-15T19:39:49.901Z,99.9
2022-09-15T19:41:51.723Z,99.9
2022-09-15T19:43:53.986Z,99.9
2022-09-15T19:45:55.694Z,99.9
2022-09-15T19:47:57.582Z,99.9
2022-09-15T19:49:59.481Z,99.9
2022-09-15T19:52:01.433Z,99.9
2022-09-15T19:54:06.481Z,99.9
2022-09-15T19:56:08.436Z,99.9
2022-09-15T19:58:10.438Z,99.9
2022-09-15T19:59:12.976Z,99.9
2022-09-15T20:01:14.950Z,99.9
2022-09-15T20:03:16.847Z,99.9
2022-09-15T20:09:25.729Z,99.9
2022-09-15T20:11:27.671Z,99.9
2022-09-15T20:13:29.604Z,99.9
2022-09-15T20:15:31.540Z,99.9
2022-09-15T20:17:33.533Z,99.9
2022-09-15T20:19:35.412Z,99.9
2022-09-15T20:21:51.220Z,99.9
2022-09-15T20:23:42.501Z,99.9
2022-09-15T20:25:44.534Z,99.9
2022-09-15T20:29:48.442Z,99.9
2022-09-15T20:33:53.808Z,99.9
2022-09-15T20:35:58.864Z,99.9
2022-09-15T20:38:00.803Z,99.9
2022-09-15T20:40:02.792Z,99.9
2022-09-15T20:42:04.799Z,99.9
2022-09-15T20:44:06.745Z,99.9
2022-09-15T20:46:08.796Z,99.9
2022-09-15T20:48:10.605Z,99.9
2022-09-15T20:50:15.649Z,99.9
2022-09-15T20:52:17.583Z,99.9
2022-09-15T20:54:19.524Z,99.9
2022-09-15T20:56:48.305Z,99.9
2022-09-15T20:58:50.317Z,99.9
2022-09-15T21:00:52.399Z,99.9
2022-09-15T21:02:57.448Z,99.9
2022-09-15T21:11:05.260Z,99.9
2022-09-15T21:13:07.205Z,99.9
2022-09-15T21:15:09.208Z,99.9
2022-09-15T21:19:16.208Z,99.9
2022-09-15T21:21:18.164Z,99.9
2022-09-15T21:23:20.114Z,99.9
2022-09-15T21:25:22.033Z,99.9
2022-09-15T21:27:23.983Z,99.9
2022-09-15T21:31:31.250Z,99.9
2022-09-15T21:33:33.109Z,99.9
2022-09-15T21:35:35.043Z,99.9
2022-09-15T21:39:39.003Z,99.9
2022-09-15T21:41:40.903Z,99.9
2022-09-15T21:43:42.841Z,99.9
2022-09-15T21:45:47.992Z,99.9
2022-09-15T21:47:49.971Z,99.9
2022-09-15T21:49:52.038Z,99.9
2022-09-15T21:54:58.553Z,99.9
2022-09-15T22:01:07.842Z,99.9
2022-09-15T22:03:09.686Z,99.9
2022-09-15T22:07:13.568Z,99.9
2022-09-15T22:11:17.424Z,99.9
2022-09-15T22:13:22.487Z,99.9
2022-09-15T22:15:24.535Z,99.9
2022-09-15T22:17:26.558Z,99.9
2022-09-15T22:19:28.589Z,99.9
2022-09-15T22:21:30.528Z,99.9
2022-09-15T22:23:32.448Z,99.9
2022-09-15T22:25:34.462Z,99.9
2022-09-15T22:27:39.635Z,99.9
2022-09-15T22:29:41.568Z,99.9
2022-09-15T22:31:43.704Z,99.9
2022-09-15T22:33:45.563Z,99.9
2022-09-15T22:35:47.582Z,99.9
2022-09-15T22:37:49.532Z,99.9
2022-09-15T22:39:58.882Z,99.9
2022-09-15T22:41:56.523Z,99.9
2022-09-15T22:43:58.568Z,99.9
2022-09-15T22:46:00.684Z,99.9
2022-09-15T22:59:18.167Z,99.9
2022-09-15T23:03:22.183Z,99.9
2022-09-15T23:09:31.439Z,99.9
2022-09-15T23:11:33.485Z,99.9
2022-09-15T23:13:35.379Z,99.9
2022-09-15T23:15:37.332Z,99.9
2022-09-15T23:17:39.224Z,99.9
2022-09-15T23:19:41.157Z,99.9
2022-09-15T23:21:43.084Z,99.9
2022-09-15T23:23:48.268Z,99.9
2022-09-15T23:25:50.190Z,99.9
2022-09-15T23:27:52.239Z,99.9
2022-09-15T23:29:54.267Z,99.9
2022-09-15T23:31:56.243Z,99.9
2022-09-15T23:33:58.154Z,99.9
2022-09-15T23:36:00.081Z,99.9
2022-09-15T23:38:05.128Z,99.9
2022-09-15T23:40:07.096Z,99.9
2022-09-15T23:42:09.065Z,99.9
2022-09-15T23:43:11.614Z,99.9
2022-09-15T23:45:13.523Z,99.9
2022-09-15T23:51:22.530Z,99.9
2022-09-15T23:55:26.511Z,99.9
